Time;durP1;ratioP1;P1;durP2;ratioP2;P2;SDS_P1;SDS_P2;PMS_P1;PMS_P2;Temp;Humidity;BMP_temperature;BMP_pressure;BME280_temperature;BME280_humidity;BME280_pressure;Samples;Min_cycle;Max_cycle;Signal;HPM_P1;HPM_P2
2023/08/02 00:01:55;;;;;;;7.55;6.85;;;;;;;16.18;100.00;97035.50;1223867;75;2922523;-68
2023/08/02 00:04:27;;;;;;;7.70;6.90;;;;;;;16.12;100.00;97032.84;1223860;75;2956078;-71
2023/08/02 00:07:00;;;;;;;5.90;5.40;;;;;;;16.35;100.00;97046.25;1224185;75;2919611;-68
2023/08/02 00:09:36;;;;;;;4.60;4.20;;;;;;;16.58;100.00;97041.81;1223208;75;2925882;-67
2023/08/02 00:12:10;;;;;;;5.90;4.60;;;;;;;16.24;100.00;97043.72;1224416;75;2926277;-69
2023/08/02 00:14:43;;;;;;;6.10;5.60;;;;;;;16.09;100.00;97031.16;1224109;75;2922203;-69
2023/08/02 00:17:15;;;;;;;6.50;4.90;;;;;;;16.28;100.00;97044.88;1222195;75;2931268;-66
2023/08/02 00:19:48;;;;;;;6.70;6.10;;;;;;;15.96;100.00;97036.63;1223296;75;2935724;-67
2023/08/02 00:22:21;;;;;;;5.90;5.40;;;;;;;16.09;100.00;97035.91;1224336;75;2927806;-68
2023/08/02 00:24:56;;;;;;;5.30;4.75;;;;;;;16.09;100.00;97046.97;1222353;75;2920771;-68
2023/08/02 00:27:28;;;;;;;4.30;3.90;;;;;;;16.37;100.00;97035.44;1224235;75;2920000;-66
2023/08/02 00:30:01;;;;;;;5.40;4.90;;;;;;;16.04;100.00;97039.53;1223295;75;2925590;-68
2023/08/02 00:32:33;;;;;;;4.40;4.00;;;;;;;16.30;100.00;97030.53;1223522;75;2924561;-70
2023/08/02 00:35:08;;;;;;;7.60;6.95;;;;;;;15.80;100.00;97034.91;1223508;75;2919314;-71
2023/08/02 00:37:41;;;;;;;6.00;5.40;;;;;;;15.99;100.00;97030.06;1223998;75;2923065;-69
2023/08/02 00:40:17;;;;;;;4.00;3.60;;;;;;;16.12;100.00;97041.13;1223247;75;2925901;-70
2023/08/02 00:42:49;;;;;;;7.00;6.30;;;;;;;15.90;100.00;97038.75;1223794;75;2923790;-66
2023/08/02 00:45:22;;;;;;;9.60;8.80;;;;;;;15.72;100.00;97049.31;1223389;75;2920605;-71
2023/08/02 00:47:54;;;;;;;9.65;8.75;;;;;;;15.75;100.00;97055.78;1223586;75;2923172;-67
2023/08/02 00:50:29;;;;;;;11.40;10.40;;;;;;;15.50;100.00;97046.88;1222625;75;2924750;-67
2023/08/02 00:53:02;;;;;;;9.60;8.70;;;;;;;15.75;100.00;97059.31;1224084;75;2926248;-71
2023/08/02 00:55:37;;;;;;;9.35;8.25;;;;;;;15.59;100.00;97054.75;1223635;75;2920723;-67
2023/08/02 00:58:10;;;;;;;7.95;7.25;;;;;;;15.73;100.00;97050.06;1224270;75;2920986;-70
2023/08/02 01:00:42;;;;;;;6.60;5.60;;;;;;;15.47;100.00;97053.44;1221155;75;2926067;-68
2023/08/02 01:03:15;;;;;;;8.25;5.10;;;;;;;15.53;100.00;97045.81;1223526;75;2924261;-67
2023/08/02 01:05:59;;;;;;;4.65;4.25;;;;;;;15.63;100.00;97052.41;1224313;75;2927555;-67
2023/08/02 01:08:38;;;;;;;11.60;5.45;;;;;;;15.20;100.00;97064.34;1222544;75;2947730;-70
2023/08/02 01:11:21;;;;;;;14.75;3.70;;;;;;;14.97;100.00;97055.59;1223641;75;2920092;-67
2023/08/02 01:13:56;;;;;;;7.05;3.00;;;;;;;15.07;100.00;97058.72;1223977;75;2878562;-68
2023/08/02 01:16:30;;;;;;;19.50;3.15;;;;;;;15.00;100.00;97062.81;1224164;75;2920151;-66
2023/08/02 01:19:03;;;;;;;3.35;2.10;;;;;;;15.07;100.00;97062.22;1223072;75;2966422;-68
2023/08/02 01:21:39;;;;;;;31.10;3.00;;;;;;;14.82;100.00;97060.78;1223293;75;2922207;-68
2023/08/02 01:24:12;;;;;;;3.15;1.60;;;;;;;15.16;100.00;97054.88;1223779;75;2922833;-66
2023/08/02 01:26:50;;;;;;;3.15;1.40;;;;;;;15.20;100.00;97045.03;1220074;75;3039637;-70
2023/08/02 01:29:26;;;;;;;17.80;2.00;;;;;;;14.95;100.00;97049.13;1224447;75;2922778;-65
2023/08/02 01:32:00;;;;;;;2.60;1.20;;;;;;;15.45;100.00;97051.19;1222002;75;2954258;-70
2023/08/02 01:34:34;;;;;;;5.45;1.60;;;;;;;15.28;100.00;97037.63;1221006;75;2958374;-65
2023/08/02 01:37:09;;;;;;;9.00;1.70;;;;;;;15.30;100.00;97050.91;1224219;75;2925056;-66
2023/08/02 01:39:41;;;;;;;6.10;1.80;;;;;;;15.12;100.00;97031.06;1223429;75;2927277;-69
2023/08/02 01:42:15;;;;;;;35.25;2.80;;;;;;;15.16;100.00;97025.28;1223038;75;2933990;-67
2023/08/02 01:44:47;;;;;;;4.35;2.00;;;;;;;15.23;100.00;97027.44;1224728;75;2922971;-71
2023/08/02 01:47:20;;;;;;;2.20;1.65;;;;;;;15.45;100.00;97028.38;1224779;75;2924766;-65
2023/08/02 01:49:52;;;;;;;2.40;1.80;;;;;;;15.37;100.00;97030.25;1222815;75;2928734;-67
2023/08/02 01:52:27;;;;;;;4.95;2.05;;;;;;;15.18;100.00;97028.25;1223612;75;2922234;-70
2023/08/02 01:55:00;;;;;;;1.80;1.30;;;;;;;15.63;100.00;97032.38;1223567;75;2922970;-69
2023/08/02 01:57:33;;;;;;;1.80;1.35;;;;;;;15.68;100.00;97034.28;1223270;75;2923540;-69
2023/08/02 02:00:06;;;;;;;1.40;1.30;;;;;;;15.86;100.00;97030.78;1223661;75;2923086;-67
2023/08/02 02:02:40;;;;;;;1.60;1.50;;;;;;;15.77;100.00;97029.16;1223978;75;2925852;-71
2023/08/02 02:05:13;;;;;;;4.60;3.20;;;;;;;15.42;100.00;97019.16;1223591;75;2927263;-68
2023/08/02 02:07:48;;;;;;;3.85;2.60;;;;;;;15.51;100.00;97024.28;1223872;75;2927236;-66
2023/08/02 02:10:21;;;;;;;2.20;2.00;;;;;;;15.89;100.00;97026.22;1223558;75;2921387;-69
2023/08/02 02:12:53;;;;;;;2.75;1.60;;;;;;;15.76;100.00;97033.19;1224149;75;2925793;-67
2023/08/02 02:15:26;;;;;;;3.00;2.70;;;;;;;15.75;100.00;97031.72;1224118;75;2922613;-68
2023/08/02 02:17:58;;;;;;;2.20;2.00;;;;;;;16.03;100.00;97027.00;1223906;75;2931482;-69
2023/08/02 02:20:31;;;;;;;2.40;2.20;;;;;;;15.73;100.00;97025.97;1223286;75;2925761;-68
2023/08/02 02:23:06;;;;;;;2.05;1.85;;;;;;;15.97;100.00;97018.81;1223616;75;2923080;-71
2023/08/02 02:25:39;;;;;;;2.35;2.15;;;;;;;15.92;100.00;97020.41;1223066;75;2922679;-68
2023/08/02 02:28:11;;;;;;;4.10;3.80;;;;;;;15.38;100.00;97015.94;1221326;75;2937833;-68
2023/08/02 02:30:46;;;;;;;3.80;3.45;;;;;;;15.43;100.00;97034.41;1224425;75;2922857;-66
2023/08/02 02:33:18;;;;;;;4.45;4.05;;;;;;;15.26;100.00;97042.94;1224583;75;2922832;-66
2023/08/02 02:35:51;;;;;;;3.35;3.05;;;;;;;15.52;100.00;97039.56;1224901;75;2920421;-67
2023/08/02 02:38:26;;;;;;;2.60;2.40;;;;;;;15.60;100.00;97039.69;1223222;75;2925826;-66
2023/08/02 02:40:59;;;;;;;2.10;2.00;;;;;;;15.82;100.00;97035.84;1223620;75;2927421;-66
2023/08/02 02:43:31;;;;;;;2.45;1.80;;;;;;;15.92;100.00;97041.72;1224841;75;2924490;-67
2023/08/02 02:46:04;;;;;;;3.65;3.35;;;;;;;15.74;100.00;97041.25;1224136;75;2928408;-68
2023/08/02 02:48:36;;;;;;;3.95;2.60;;;;;;;15.92;100.00;97033.44;1224713;75;2920283;-72
2023/08/02 02:51:09;;;;;;;2.35;2.15;;;;;;;15.80;100.00;97040.41;1223646;75;2920436;-69
2023/08/02 02:53:44;;;;;;;2.70;2.50;;;;;;;15.59;100.00;97040.22;1224411;75;2925286;-71
2023/08/02 02:56:17;;;;;;;3.20;2.90;;;;;;;15.61;100.00;97051.47;1224753;75;2918297;-69
2023/08/02 02:58:50;;;;;;;3.70;3.40;;;;;;;15.47;100.00;97045.91;1224604;75;2923515;-70
2023/08/02 03:01:25;;;;;;;5.65;5.10;;;;;;;15.10;100.00;97039.16;1223969;75;2931829;-66
2023/08/02 03:03:57;;;;;;;4.80;4.40;;;;;;;15.13;100.00;97037.34;1224830;75;2925522;-68
2023/08/02 03:06:30;;;;;;;5.30;4.80;;;;;;;15.11;100.00;97050.91;1224579;75;2921224;-67
2023/08/02 03:09:05;;;;;;;5.95;3.55;;;;;;;15.15;100.00;97043.06;1223175;75;2923864;-69
2023/08/02 03:11:38;;;;;;;3.70;3.40;;;;;;;15.04;100.00;97046.00;1222718;75;2927171;-68
2023/08/02 03:14:10;;;;;;;4.20;3.30;;;;;;;15.02;100.00;97046.50;1223469;75;2925782;-70
2023/08/02 03:16:44;;;;;;;3.95;2.90;;;;;;;15.25;100.00;97044.22;1223391;75;2922408;-70
2023/08/02 03:19:17;;;;;;;3.20;2.90;;;;;;;15.31;100.00;97036.59;1223887;75;2920391;-67
2023/08/02 03:21:50;;;;;;;4.55;3.05;;;;;;;15.32;100.00;97037.31;1223130;75;2922051;-67
2023/08/02 03:24:25;;;;;;;5.70;3.70;;;;;;;15.28;100.00;97045.91;1224544;75;2924121;-68
2023/08/02 03:26:58;;;;;;;4.35;3.40;;;;;;;15.38;100.00;97040.75;1224120;75;2924071;-70
2023/08/02 03:29:31;;;;;;;20.10;3.85;;;;;;;15.11;100.00;97031.63;1224827;75;2918293;-71
2023/08/02 03:32:04;;;;;;;5.80;5.30;;;;;;;15.21;100.00;97037.50;1222765;75;2924312;-67
2023/08/02 03:34:36;;;;;;;4.20;3.80;;;;;;;15.17;100.00;97043.31;1224480;75;2923132;-68
2023/08/02 03:37:10;;;;;;;5.25;4.15;;;;;;;15.20;100.00;97036.75;1224676;75;2922205;-70
2023/08/02 03:39:45;;;;;;;6.55;5.95;;;;;;;15.20;100.00;97030.47;1223865;75;2920358;-66
2023/08/02 03:42:17;;;;;;;5.80;5.30;;;;;;;15.11;100.00;97029.59;1224490;75;2922863;-67
2023/08/02 03:44:50;;;;;;;10.75;6.80;;;;;;;14.96;100.00;97037.56;1223848;75;2920147;-68
2023/08/02 03:47:23;;;;;;;5.30;4.80;;;;;;;15.20;100.00;97020.22;1196649;75;4827410;-68
2023/08/02 03:49:55;;;;;;;5.40;4.90;;;;;;;15.34;100.00;97019.00;1224422;75;2921022;-67
2023/08/02 03:52:28;;;;;;;3.65;3.35;;;;;;;15.61;100.00;97023.88;1222953;75;2917734;-66
2023/08/02 03:55:03;;;;;;;3.50;3.05;;;;;;;15.55;100.00;97018.44;1224366;75;2924395;-68
2023/08/02 03:57:36;;;;;;;3.70;3.40;;;;;;;15.61;100.00;97016.34;1223675;75;2933145;-66
2023/08/02 04:00:11;;;;;;;6.80;6.20;;;;;;;15.41;100.00;97014.16;1206159;75;4086161;-71
2023/08/02 04:02:44;;;;;;;4.00;3.70;;;;;;;15.75;100.00;97028.97;1216917;75;3393475;-70
2023/08/02 04:05:16;;;;;;;3.85;3.45;;;;;;;15.80;100.00;97034.91;1223661;75;2918945;-66
2023/08/02 04:07:49;;;;;;;2.90;2.65;;;;;;;15.88;100.00;97033.75;1224588;75;2923778;-69
2023/08/02 04:10:24;;;;;;;2.55;2.35;;;;;;;16.01;100.00;97043.34;1223567;75;2919893;-69
2023/08/02 04:12:57;;;;;;;2.65;2.45;;;;;;;15.68;100.00;97037.81;1224666;75;2928391;-68
2023/08/02 04:15:29;;;;;;;9.40;8.30;;;;;;;15.23;100.00;97043.97;1223200;75;2929121;-66
2023/08/02 04:18:02;;;;;;;8.45;7.75;;;;;;;15.54;100.00;97047.31;1223211;75;2938155;-66
2023/08/02 04:20:39;;;;;;;7.60;6.90;;;;;;;15.71;100.00;97045.06;1224022;75;2926044;-68
2023/08/02 04:23:12;;;;;;;11.85;8.70;;;;;;;15.08;100.00;97038.16;1224113;75;2934608;-66
2023/08/02 04:25:47;;;;;;;10.20;9.30;;;;;;;15.23;100.00;97037.72;1223128;75;2923847;-67
2023/08/02 04:28:19;;;;;;;10.85;9.85;;;;;;;15.21;100.00;97032.72;1224149;75;2923151;-68
2023/08/02 04:30:55;;;;;;;11.40;10.30;;;;;;;15.09;100.00;97023.84;1223131;75;2921151;-67
2023/08/02 04:33:28;;;;;;;11.10;10.05;;;;;;;15.33;100.00;97036.06;1223765;75;2923853;-65
2023/08/02 04:36:02;;;;;;;12.00;10.80;;;;;;;15.18;100.00;97033.78;1224417;75;2922951;-68
2023/08/02 04:38:35;;;;;;;11.45;10.25;;;;;;;15.37;100.00;97042.03;1223589;75;2921604;-66
2023/08/02 04:41:10;;;;;;;9.45;8.55;;;;;;;15.55;100.00;97043.28;1223410;75;2920366;-69
2023/08/02 04:43:42;;;;;;;7.60;6.90;;;;;;;15.69;100.00;97044.81;1225187;75;2929174;-67
2023/08/02 04:46:15;;;;;;;8.90;8.00;;;;;;;15.92;100.00;97052.75;1222543;75;2924847;-66
2023/08/02 04:48:48;;;;;;;7.25;6.55;;;;;;;16.16;100.00;97051.84;1224248;75;2921160;-69
2023/08/02 04:51:20;;;;;;;7.80;7.10;;;;;;;15.81;100.00;97064.75;1224012;75;2928423;-69
2023/08/02 04:53:53;;;;;;;8.20;7.30;;;;;;;15.70;100.00;97060.13;1224340;75;2919810;-68
2023/08/02 04:56:31;;;;;;;6.55;5.95;;;;;;;16.17;100.00;97062.38;1223873;75;2924311;-66
2023/08/02 04:59:03;;;;;;;;;;;;;;;16.27;100.00;97062.72;1221885;75;3018441;-67
2023/08/02 05:01:36;;;;;;;5.05;3.55;;;;;;;16.33;100.00;97066.13;1223772;75;2926452;-67
2023/08/02 05:04:09;;;;;;;5.90;5.40;;;;;;;16.10;100.00;97057.47;1224428;75;2924160;-71
2023/08/02 05:06:42;;;;;;;4.65;4.00;;;;;;;16.29;100.00;97062.94;1223967;75;2926297;-68
2023/08/02 05:09:15;;;;;;;3.85;3.40;;;;;;;16.43;100.00;97066.47;1223948;75;2926548;-66
2023/08/02 05:11:50;;;;;;;3.60;3.25;;;;;;;15.95;100.00;97069.03;1223443;75;2921770;-67
2023/08/02 05:14:23;;;;;;;4.75;3.55;;;;;;;15.68;100.00;97070.16;1223449;75;2924230;-69
2023/08/02 05:16:55;;;;;;;4.55;3.70;;;;;;;15.66;100.00;97067.94;1223117;75;2931145;-68
2023/08/02 05:19:28;;;;;;;3.80;3.40;;;;;;;15.81;100.00;97072.28;1223722;75;2920456;-65
2023/08/02 05:22:00;;;;;;;3.50;3.00;;;;;;;15.74;100.00;97068.84;1222881;75;2923333;-64
2023/08/02 05:24:33;;;;;;;2.90;2.60;;;;;;;15.75;100.00;97066.81;1223243;75;2928339;-67
2023/08/02 05:27:09;;;;;;;3.35;2.40;;;;;;;16.15;100.00;97061.44;1223486;75;2927097;-67
2023/08/02 05:29:41;;;;;;;1.95;1.65;;;;;;;16.28;100.00;97055.91;1222639;75;2935106;-70
2023/08/02 05:32:14;;;;;;;1.60;1.50;;;;;;;16.35;100.00;97060.81;1222204;75;2934192;-68
2023/08/02 05:34:46;;;;;;;3.10;1.75;;;;;;;16.45;100.00;97058.41;1219490;75;2945020;-68
2023/08/02 05:37:20;;;;;;;2.05;1.75;;;;;;;16.58;100.00;97069.44;1223541;75;2919779;-69
2023/08/02 05:39:52;;;;;;;2.25;1.55;;;;;;;16.63;100.00;97072.66;1222815;83;2934265;-69
2023/08/02 05:42:28;;;;;;;3.30;3.00;;;;;;;16.45;100.00;97068.69;1222728;75;2930577;-66
2023/08/02 05:45:00;;;;;;;3.40;3.00;;;;;;;16.31;100.00;97062.41;1224056;75;2919457;-66
2023/08/02 05:47:33;;;;;;;3.15;2.70;;;;;;;16.50;100.00;97074.13;1224046;75;2931778;-69
2023/08/02 05:50:06;;;;;;;3.35;2.90;;;;;;;16.51;100.00;97061.06;1223830;75;2924269;-65
2023/08/02 05:52:39;;;;;;;3.10;2.80;;;;;;;16.81;100.00;97050.44;1223854;75;2926346;-69
2023/08/02 05:55:12;;;;;;;2.50;2.00;;;;;;;17.00;100.00;97055.84;1224378;75;2926011;-70
2023/08/02 05:57:49;;;;;;;1.90;1.70;;;;;;;17.38;100.00;97058.31;1223582;75;2924377;-66
2023/08/02 06:00:21;;;;;;;2.30;2.10;;;;;;;17.64;100.00;97073.34;1222785;75;2923626;-67
2023/08/02 06:02:54;;;;;;;2.35;1.70;;;;;;;17.85;100.00;97063.06;1223026;75;2923865;-68
2023/08/02 06:05:27;;;;;;;3.00;2.70;;;;;;;17.37;100.00;97058.84;1222894;75;2931177;-70
2023/08/02 06:07:59;;;;;;;2.65;2.30;;;;;;;17.53;100.00;97052.19;1223372;75;2926887;-68
2023/08/02 06:10:32;;;;;;;4.60;2.55;;;;;;;17.17;100.00;97061.03;1222742;75;2925489;-67
2023/08/02 06:13:07;;;;;;;2.00;1.80;;;;;;;17.28;100.00;97059.31;1223740;75;2925803;-68
2023/08/02 06:15:40;;;;;;;2.90;1.90;;;;;;;17.33;100.00;97064.69;1223968;75;2924045;-69
2023/08/02 06:18:14;;;;;;;2.45;2.25;;;;;;;17.38;100.00;97065.88;1223832;75;2821089;-68
2023/08/02 06:20:47;;;;;;;4.45;3.50;;;;;;;17.46;100.00;97056.38;1224523;75;2929087;-70
2023/08/02 06:23:19;;;;;;;6.25;4.40;;;;;;;17.32;100.00;97052.16;1223571;75;2919446;-65
2023/08/02 06:25:52;;;;;;;4.95;4.45;;;;;;;17.37;100.00;97056.81;1223063;75;2925819;-67
2023/08/02 06:28:28;;;;;;;5.40;4.35;;;;;;;17.44;100.00;97056.16;1222999;75;2928322;-69
2023/08/02 06:31:00;;;;;;;4.80;4.30;;;;;;;17.87;100.00;97063.25;1222531;75;2925209;-67
2023/08/02 06:33:33;;;;;;;5.40;4.90;;;;;;;17.97;100.00;97074.63;1223691;75;2923324;-67
2023/08/02 06:36:06;;;;;;;7.55;5.40;;;;;;;18.06;100.00;97060.28;1223822;75;2929957;-68
2023/08/02 06:38:38;;;;;;;6.70;5.80;;;;;;;18.21;100.00;97058.94;1223044;75;2926211;-68
2023/08/02 06:41:11;;;;;;;8.20;6.20;;;;;;;17.82;100.00;97066.16;1222645;75;2932522;-68
2023/08/02 06:43:46;;;;;;;6.25;5.65;;;;;;;17.74;100.00;97065.31;1223493;75;2923239;-69
2023/08/02 06:46:19;;;;;;;6.05;5.45;;;;;;;17.81;100.00;97054.34;1224081;75;2928423;-66
2023/08/02 06:48:52;;;;;;;5.45;4.95;;;;;;;17.90;100.00;97060.72;1223491;75;2923911;-67
2023/08/02 06:51:25;;;;;;;5.95;5.35;;;;;;;17.41;100.00;97062.78;1223965;75;2922698;-69
2023/08/02 06:53:58;;;;;;;5.20;4.70;;;;;;;17.80;100.00;97069.47;1222881;75;2917498;-68
2023/08/02 06:56:31;;;;;;;6.55;5.85;;;;;;;17.75;100.00;97067.56;1223787;75;2921488;-68
2023/08/02 06:59:06;;;;;;;5.60;5.05;;;;;;;17.86;100.00;97074.88;1223966;75;2926737;-68
2023/08/02 07:01:38;;;;;;;6.15;5.55;;;;;;;17.95;100.00;97076.44;1223989;75;2862055;-68
2023/08/02 07:04:11;;;;;;;5.15;4.65;;;;;;;18.06;100.00;97084.47;1223769;75;2933548;-67
2023/08/02 07:06:44;;;;;;;4.85;4.35;;;;;;;18.12;100.00;97089.88;1223151;75;2922212;-66
2023/08/02 07:09:17;;;;;;;4.65;4.25;;;;;;;18.14;100.00;97090.09;1224147;75;2948177;-68
2023/08/02 07:11:49;;;;;;;4.90;4.40;;;;;;;18.25;100.00;97075.94;1223290;75;2924007;-66
2023/08/02 07:14:24;;;;;;;4.15;3.65;;;;;;;18.58;100.00;97084.69;1221264;75;3050414;-71
2023/08/02 07:16:57;;;;;;;4.90;4.50;;;;;;;18.30;100.00;97083.38;1224545;75;2919422;-68
2023/08/02 07:19:30;;;;;;;4.70;4.20;;;;;;;18.37;100.00;97085.44;1223815;75;2923727;-70
2023/08/02 07:22:02;;;;;;;5.45;4.95;;;;;;;18.55;100.00;97080.22;1223609;75;2937976;-69
2023/08/02 07:24:35;;;;;;;5.50;4.60;;;;;;;18.45;100.00;97082.75;1224306;75;2920844;-66
2023/08/02 07:27:09;;;;;;;5.15;4.35;;;;;;;18.38;100.00;97077.91;1225037;75;2922864;-67
2023/08/02 07:29:45;;;;;;;4.50;4.10;;;;;;;18.85;100.00;97080.44;1223697;75;2926626;-69
2023/08/02 07:32:17;;;;;;;5.15;4.60;;;;;;;18.37;100.00;97091.00;1224543;75;2922931;-71
2023/08/02 07:34:50;;;;;;;4.35;3.95;;;;;;;18.24;100.00;97091.81;1224458;75;2920401;-67
2023/08/02 07:37:22;;;;;;;5.20;4.55;;;;;;;18.36;100.00;97097.84;1224083;75;2923681;-68
2023/08/02 07:39:55;;;;;;;5.80;5.20;;;;;;;18.48;100.00;97084.44;1223687;75;2920370;-67
2023/08/02 07:42:28;;;;;;;6.10;5.10;;;;;;;18.93;100.00;97080.50;1224117;75;2923220;-68
2023/08/02 07:45:12;;;;;;;4.70;3.80;;;;;;;19.28;100.00;97081.75;1223784;75;2926444;-66
2023/08/02 07:47:45;;;;;;;3.80;3.40;;;;;;;19.75;100.00;97082.66;1223214;75;2927434;-69
2023/08/02 07:50:18;;;;;;;4.65;4.05;;;;;;;19.57;100.00;97087.94;1223635;75;2923946;-65
2023/08/02 07:52:51;;;;;;;3.80;3.30;;;;;;;19.83;100.00;97079.88;1224133;75;2926218;-67
2023/08/02 07:55:24;;;;;;;3.80;2.60;;;;;;;20.39;100.00;97075.28;1223781;75;2922691;-66
2023/08/02 07:57:56;;;;;;;2.60;2.30;;;;;;;20.89;100.00;97067.25;1223841;75;2920843;-70
2023/08/02 08:00:32;;;;;;;2.75;2.50;;;;;;;20.56;100.00;97064.34;1223365;75;2927816;-66
2023/08/02 08:03:04;;;;;;;3.55;2.90;;;;;;;20.31;100.00;97057.88;1223509;75;2927818;-66
2023/08/02 08:05:37;;;;;;;3.60;3.30;;;;;;;19.99;100.00;97064.72;1224500;75;2921410;-71
2023/08/02 08:08:09;;;;;;;2.80;2.30;;;;;;;20.95;100.00;97058.69;1223287;75;2915389;-67
2023/08/02 08:10:42;;;;;;;1.85;1.75;;;;;;;21.35;100.00;97064.28;1223665;75;2923266;-66
2023/08/02 08:13:14;;;;;;;3.25;2.20;;;;;;;21.21;100.00;97061.03;1223947;75;2921295;-66
2023/08/02 08:15:50;;;;;;;2.50;2.25;;;;;;;21.56;97.88;97066.81;1224536;75;2921092;-69
2023/08/02 08:18:22;;;;;;;2.45;2.25;;;;;;;21.76;94.97;97058.72;1224109;75;2920570;-67
2023/08/02 08:20:55;;;;;;;2.50;2.10;;;;;;;22.08;97.83;97053.09;1223826;75;2930001;-69
2023/08/02 08:23:28;;;;;;;3.20;2.55;;;;;;;21.72;99.49;97061.13;1222891;75;2920715;-69
2023/08/02 08:26:01;;;;;;;2.65;2.45;;;;;;;21.00;100.00;97052.19;1224179;75;2924428;-67
2023/08/02 08:28:33;;;;;;;3.30;2.50;;;;;;;21.08;97.22;97064.03;1218321;75;3143318;-68
2023/08/02 08:31:09;;;;;;;2.30;2.10;;;;;;;21.66;100.00;97053.00;1223559;75;2976949;-71
2023/08/02 08:33:41;;;;;;;3.20;2.90;;;;;;;21.56;94.21;97060.50;1224279;75;2918864;-67
2023/08/02 08:36:17;;;;;;;4.10;3.50;;;;;;;21.95;93.22;97055.41;1224124;75;2925385;-67
2023/08/02 08:38:50;;;;;;;3.55;2.95;;;;;;;22.16;92.33;97058.59;1224253;75;2923497;-69
2023/08/02 08:41:22;;;;;;;2.85;2.55;;;;;;;21.56;95.20;97057.72;1223497;75;2929707;-69
2023/08/02 08:43:55;;;;;;;2.10;1.90;;;;;;;21.77;91.88;97052.56;1224277;75;2921772;-69
2023/08/02 08:46:33;;;;;;;2.80;2.20;;;;;;;21.61;90.37;97045.63;1223483;75;2940522;-65
2023/08/02 08:49:06;;;;;;;2.20;2.00;;;;;;;21.63;86.48;97049.31;1225238;75;2922005;-67
2023/08/02 08:51:42;;;;;;;2.25;1.75;;;;;;;21.92;95.25;97051.72;1223714;75;2922590;-68
2023/08/02 08:54:23;;;;;;;1.75;1.65;;;;;;;22.03;90.88;97050.53;1224274;75;2922502;-67
2023/08/02 08:56:57;;;;;;;2.20;2.00;;;;;;;22.53;92.20;97050.50;1224760;75;2924057;-68
2023/08/02 08:59:30;;;;;;;1.75;1.65;;;;;;;22.63;92.66;97045.00;1223775;75;2925098;-69
2023/08/02 09:02:06;;;;;;;1.60;1.50;;;;;;;22.30;89.44;97048.66;1221140;75;3069848;-69
2023/08/02 09:04:40;;;;;;;1.80;1.70;;;;;;;22.76;89.57;97033.53;1224236;75;2923767;-67
2023/08/02 09:07:12;;;;;;;1.80;1.55;;;;;;;22.66;84.05;97036.25;1223935;75;2924382;-65
2023/08/02 09:09:45;;;;;;;2.30;1.60;;;;;;;22.35;80.56;97043.44;1222016;75;2924365;-69
2023/08/02 09:12:17;;;;;;;2.30;1.55;;;;;;;22.33;91.14;97050.31;1224915;75;2921389;-68
2023/08/02 09:15:04;;;;;;;1.70;1.60;;;;;;;22.50;87.20;97034.91;1223777;75;2926316;-66
2023/08/02 09:17:50;;;;;;;1.75;1.50;;;;;;;22.86;89.26;97025.97;1224616;75;2923050;-66
2023/08/02 09:20:25;;;;;;;1.70;1.60;;;;;;;23.15;84.91;97006.66;1223077;75;2923434;-68
2023/08/02 09:22:58;;;;;;;1.70;1.50;;;;;;;23.30;82.13;97016.16;1223689;75;2922445;-69
2023/08/02 09:25:32;;;;;;;1.30;1.20;;;;;;;23.59;85.06;97017.06;1223536;75;2928282;-66
2023/08/02 09:28:14;;;;;;;2.30;2.10;;;;;;;22.88;84.30;97003.81;1224015;75;2922535;-65
2023/08/02 09:30:47;;;;;;;2.80;2.50;;;;;;;23.57;84.16;97002.94;1223890;75;2920016;-70
2023/08/02 09:33:22;;;;;;;3.65;1.80;;;;;;;23.34;92.51;96999.72;1223852;75;2932409;-70
2023/08/02 09:35:55;;;;;;;2.15;1.85;;;;;;;23.09;91.56;96997.06;1223590;75;2930663;-67
2023/08/02 09:38:28;;;;;;;2.45;1.90;;;;;;;23.15;91.75;96997.53;1223650;75;2918041;-68
2023/08/02 09:41:00;;;;;;;1.75;1.65;;;;;;;23.67;92.45;96983.41;1223183;75;2920657;-65
2023/08/02 09:43:33;;;;;;;1.80;1.60;;;;;;;23.57;84.20;96993.78;1223903;75;2925831;-68
2023/08/02 09:46:25;;;;;;;1.60;1.50;;;;;;;24.18;80.18;96997.72;1223799;75;2924095;-66
2023/08/02 09:49:00;;;;;;;2.45;2.05;;;;;;;23.85;89.69;97002.91;1224586;75;2921218;-69
2023/08/02 09:51:42;;;;;;;2.10;1.95;;;;;;;23.54;86.38;96989.38;1222681;75;2923828;-67
2023/08/02 09:54:17;;;;;;;1.95;1.40;;;;;;;24.01;88.01;96982.50;1223591;75;2926090;-66
2023/08/02 09:56:50;;;;;;;2.30;1.70;;;;;;;23.81;84.25;96995.69;1223862;75;2932218;-69
2023/08/02 09:59:23;;;;;;;3.15;1.50;;;;;;;23.86;83.42;96984.81;1224156;75;2923287;-70
2023/08/02 10:01:57;;;;;;;1.95;1.70;;;;;;;23.60;78.14;96981.47;1222777;75;2921711;-69
2023/08/02 10:04:34;;;;;;;2.85;1.50;;;;;;;23.39;81.20;96991.06;1224104;75;2916427;-68
2023/08/02 10:07:10;;;;;;;2.15;1.80;;;;;;;23.71;80.91;96983.69;1224753;75;2844964;-68
2023/08/02 10:09:44;;;;;;;1.50;1.40;;;;;;;24.35;79.39;96982.88;1222812;75;2926342;-66
2023/08/02 10:12:19;;;;;;;1.45;1.35;;;;;;;24.14;77.12;96986.22;1224467;75;2922829;-67
2023/08/02 10:14:52;;;;;;;1.30;1.20;;;;;;;24.95;74.47;96996.31;1223400;75;2928562;-68
2023/08/02 10:17:27;;;;;;;1.65;1.40;;;;;;;24.98;73.58;96990.25;1223531;75;2925632;-68
2023/08/02 10:20:00;;;;;;;2.15;1.50;;;;;;;25.28;70.80;96988.19;1223058;75;2924882;-69
2023/08/02 10:22:33;;;;;;;1.80;1.50;;;;;;;25.36;69.94;96979.59;1223921;75;2927706;-69
2023/08/02 10:25:07;;;;;;;1.35;1.25;;;;;;;24.83;69.22;96974.50;1223880;75;2925996;-68
2023/08/02 10:27:40;;;;;;;2.65;1.40;;;;;;;24.99;73.62;96977.75;1223997;75;2919745;-68
2023/08/02 10:30:16;;;;;;;1.85;1.10;;;;;;;24.79;70.00;96962.28;1222545;75;2924481;-66
2023/08/02 10:33:12;;;;;;;2.90;1.30;;;;;;;24.52;73.06;96971.56;1224886;75;2923354;-65
2023/08/02 10:36:05;;;;;;;1.70;1.30;;;;;;;24.09;77.21;96962.06;1224343;75;2923823;-68
2023/08/02 10:38:53;;;;;;;1.95;1.30;;;;;;;24.56;72.73;96957.88;1224007;75;2954858;-68
2023/08/02 10:41:28;;;;;;;1.90;1.40;;;;;;;24.65;75.50;96959.19;1223461;75;2927033;-71
2023/08/02 10:44:16;;;;;;;1.30;1.20;;;;;;;24.80;77.37;96960.97;1224141;75;2926595;-69
2023/08/02 10:46:49;;;;;;;;;;;;;;;24.93;74.61;96960.50;1224870;75;2923841;-69
2023/08/02 10:49:41;;;;;;;1.30;1.10;;;;;;;24.81;71.95;96954.75;1224262;75;2929309;-69
2023/08/02 10:52:34;;;;;;;2.90;1.75;;;;;;;24.56;73.17;96952.28;1223691;75;2930090;-70
2023/08/02 10:55:15;;;;;;;2.05;1.85;;;;;;;24.19;74.34;96943.25;1224260;75;2920892;-70
2023/08/02 10:58:07;;;;;;;3.65;2.10;;;;;;;24.16;75.90;96941.63;1224092;75;2920520;-67
2023/08/02 11:00:40;;;;;;;3.20;2.00;;;;;;;23.71;74.68;96947.38;1222088;75;2928345;-66
2023/08/02 11:03:13;;;;;;;2.80;2.35;;;;;;;23.74;74.96;96928.72;1223963;75;2928800;-68
2023/08/02 11:05:49;;;;;;;1.45;1.30;;;;;;;24.23;75.60;96924.69;1224276;75;2924268;-67
2023/08/02 11:08:24;;;;;;;1.30;1.20;;;;;;;24.21;73.89;96927.34;1223630;75;2922137;-65
2023/08/02 11:10:58;;;;;;;2.00;1.45;;;;;;;24.12;74.79;96918.94;1223833;75;2927162;-67
2023/08/02 11:13:43;;;;;;;1.80;1.50;;;;;;;24.52;72.97;96928.88;1224608;75;2922009;-66
2023/08/02 11:16:16;;;;;;;1.55;1.35;;;;;;;24.72;74.56;96930.31;1223334;75;2984495;-68
2023/08/02 11:18:49;;;;;;;2.05;1.30;;;;;;;25.00;71.18;96914.78;1224116;75;2923281;-67
2023/08/02 11:21:22;;;;;;;1.60;1.20;;;;;;;25.42;67.58;96904.34;1223097;75;2928828;-66
2023/08/02 11:24:03;;;;;;;1.40;1.30;;;;;;;25.58;67.00;96905.47;1223781;75;2921895;-69
2023/08/02 11:26:36;;;;;;;1.10;1.00;;;;;;;26.00;66.92;96894.91;1224409;75;2921050;-68
2023/08/02 11:29:12;;;;;;;3.70;1.50;;;;;;;24.95;69.71;96896.25;1223691;75;2921210;-67
2023/08/02 11:31:44;;;;;;;1.80;1.35;;;;;;;25.07;70.35;96883.09;1221893;75;2922821;-69
2023/08/02 11:34:18;;;;;;;1.55;1.10;;;;;;;25.61;67.70;96884.63;1224623;75;2931417;-67
2023/08/02 11:36:52;;;;;;;1.70;1.40;;;;;;;25.47;67.07;96883.69;1225055;75;2921984;-67
2023/08/02 11:39:27;;;;;;;2.75;1.20;;;;;;;26.03;65.68;96874.09;1223748;75;2920137;-69
2023/08/02 11:42:07;;;;;;;1.75;1.10;;;;;;;26.86;67.45;96873.06;1223600;75;2921151;-71
2023/08/02 11:44:39;;;;;;;0.85;0.85;;;;;;;27.12;66.32;96859.91;1224712;75;2926005;-68